sensor_id;sensor_type;location;lat;lon;timestamp;P1;durP1;ratioP1;P2;durP2;ratioP2
58083;SDS011;43882;51.550;11.858;2023-05-07T00:02:15;28.33;;;13.15;;
58083;SDS011;43882;51.550;11.858;2023-05-07T00:04:41;30.50;;;13.35;;
58083;SDS011;43882;51.550;11.858;2023-05-07T00:07:07;29.58;;;12.50;;
58083;SDS011;43882;51.550;11.858;2023-05-07T00:09:33;31.50;;;14.07;;
58083;SDS011;43882;51.550;11.858;2023-05-07T00:11:59;32.20;;;13.45;;
58083;SDS011;43882;51.550;11.858;2023-05-07T00:14:25;28.20;;;11.93;;
58083;SDS011;43882;51.550;11.858;2023-05-07T00:16:52;28.85;;;12.48;;
58083;SDS011;43882;51.550;11.858;2023-05-07T00:19:18;28.00;;;12.00;;
58083;SDS011;43882;51.550;11.858;2023-05-07T00:21:44;30.70;;;12.07;;
58083;SDS011;43882;51.550;11.858;2023-05-07T00:24:10;31.90;;;12.35;;
58083;SDS011;43882;51.550;11.858;2023-05-07T00:26:36;27.27;;;10.93;;
58083;SDS011;43882;51.550;11.858;2023-05-07T00:29:02;29.40;;;12.10;;
58083;SDS011;43882;51.550;11.858;2023-05-07T00:31:28;28.90;;;11.65;;
58083;SDS011;43882;51.550;11.858;2023-05-07T00:33:54;29.48;;;12.60;;
58083;SDS011;43882;51.550;11.858;2023-05-07T00:36:20;30.70;;;12.50;;
58083;SDS011;43882;51.550;11.858;2023-05-07T00:38:46;31.52;;;11.85;;
58083;SDS011;43882;51.550;11.858;2023-05-07T00:41:12;29.13;;;12.00;;
58083;SDS011;43882;51.550;11.858;2023-05-07T00:43:38;30.27;;;12.05;;
58083;SDS011;43882;51.550;11.858;2023-05-07T00:46:04;28.15;;;11.70;;
58083;SDS011;43882;51.550;11.858;2023-05-07T00:48:31;29.00;;;12.07;;
58083;SDS011;43882;51.550;11.858;2023-05-07T00:50:57;31.13;;;12.88;;
58083;SDS011;43882;51.550;11.858;2023-05-07T00:53:23;28.40;;;11.30;;
58083;SDS011;43882;51.550;11.858;2023-05-07T00:55:50;28.58;;;11.88;;
58083;SDS011;43882;51.550;11.858;2023-05-07T00:58:16;27.33;;;11.82;;
58083;SDS011;43882;51.550;11.858;2023-05-07T01:00:42;29.23;;;12.48;;
58083;SDS011;43882;51.550;11.858;2023-05-07T01:03:08;30.63;;;10.63;;
58083;SDS011;43882;51.550;11.858;2023-05-07T01:05:34;28.45;;;11.45;;
58083;SDS011;43882;51.550;11.858;2023-05-07T01:08:01;26.58;;;11.15;;
58083;SDS011;43882;51.550;11.858;2023-05-07T01:10:28;26.88;;;11.45;;
58083;SDS011;43882;51.550;11.858;2023-05-07T01:12:55;26.35;;;10.13;;
58083;SDS011;43882;51.550;11.858;2023-05-07T01:15:22;26.98;;;11.48;;
58083;SDS011;43882;51.550;11.858;2023-05-07T01:17:48;26.08;;;10.50;;
58083;SDS011;43882;51.550;11.858;2023-05-07T01:20:14;28.65;;;12.25;;
58083;SDS011;43882;51.550;11.858;2023-05-07T01:22:41;27.48;;;12.30;;
58083;SDS011;43882;51.550;11.858;2023-05-07T01:25:08;31.98;;;13.00;;
58083;SDS011;43882;51.550;11.858;2023-05-07T01:27:35;27.27;;;12.43;;
58083;SDS011;43882;51.550;11.858;2023-05-07T01:30:02;29.17;;;12.70;;
58083;SDS011;43882;51.550;11.858;2023-05-07T01:32:33;32.00;;;12.88;;
58083;SDS011;43882;51.550;11.858;2023-05-07T01:35:07;29.77;;;13.82;;
58083;SDS011;43882;51.550;11.858;2023-05-07T01:37:36;30.38;;;13.32;;
58083;SDS011;43882;51.550;11.858;2023-05-07T01:40:03;29.63;;;12.45;;
58083;SDS011;43882;51.550;11.858;2023-05-07T01:42:30;27.10;;;11.98;;
58083;SDS011;43882;51.550;11.858;2023-05-07T01:44:57;29.45;;;12.02;;
58083;SDS011;43882;51.550;11.858;2023-05-07T01:47:23;27.20;;;11.55;;
58083;SDS011;43882;51.550;11.858;2023-05-07T01:49:50;28.83;;;13.20;;
58083;SDS011;43882;51.550;11.858;2023-05-07T01:52:16;28.45;;;11.65;;
58083;SDS011;43882;51.550;11.858;2023-05-07T01:54:42;28.15;;;11.40;;
58083;SDS011;43882;51.550;11.858;2023-05-07T01:57:08;26.20;;;10.50;;
58083;SDS011;43882;51.550;11.858;2023-05-07T01:59:35;27.70;;;11.05;;
58083;SDS011;43882;51.550;11.858;2023-05-07T02:02:01;27.10;;;11.07;;
58083;SDS011;43882;51.550;11.858;2023-05-07T02:04:27;26.45;;;10.98;;
58083;SDS011;43882;51.550;11.858;2023-05-07T02:06:53;26.70;;;11.00;;
58083;SDS011;43882;51.550;11.858;2023-05-07T02:09:19;25.55;;;11.80;;
58083;SDS011;43882;51.550;11.858;2023-05-07T02:11:45;25.20;;;10.80;;
58083;SDS011;43882;51.550;11.858;2023-05-07T02:14:11;23.42;;;10.25;;
58083;SDS011;43882;51.550;11.858;2023-05-07T02:16:37;24.23;;;10.48;;
58083;SDS011;43882;51.550;11.858;2023-05-07T02:19:03;24.10;;;10.25;;
58083;SDS011;43882;51.550;11.858;2023-05-07T02:21:30;26.20;;;10.95;;
58083;SDS011;43882;51.550;11.858;2023-05-07T02:23:56;24.98;;;10.18;;
58083;SDS011;43882;51.550;11.858;2023-05-07T02:26:22;26.88;;;10.02;;
58083;SDS011;43882;51.550;11.858;2023-05-07T02:28:48;24.30;;;10.60;;
58083;SDS011;43882;51.550;11.858;2023-05-07T02:31:14;24.98;;;10.60;;
58083;SDS011;43882;51.550;11.858;2023-05-07T02:33:40;24.27;;;10.00;;
58083;SDS011;43882;51.550;11.858;2023-05-07T02:36:07;23.73;;;9.95;;
58083;SDS011;43882;51.550;11.858;2023-05-07T02:38:36;22.05;;;9.55;;
58083;SDS011;43882;51.550;11.858;2023-05-07T02:41:03;25.02;;;9.90;;
58083;SDS011;43882;51.550;11.858;2023-05-07T02:43:29;23.70;;;10.25;;
58083;SDS011;43882;51.550;11.858;2023-05-07T02:46:05;22.25;;;9.18;;
58083;SDS011;43882;51.550;11.858;2023-05-07T02:48:32;23.58;;;9.63;;
58083;SDS011;43882;51.550;11.858;2023-05-07T02:50:58;22.80;;;9.43;;
58083;SDS011;43882;51.550;11.858;2023-05-07T02:53:25;22.75;;;8.88;;
58083;SDS011;43882;51.550;11.858;2023-05-07T02:55:52;23.25;;;8.90;;
58083;SDS011;43882;51.550;11.858;2023-05-07T02:58:18;26.90;;;9.18;;
58083;SDS011;43882;51.550;11.858;2023-05-07T03:00:44;22.65;;;9.45;;
58083;SDS011;43882;51.550;11.858;2023-05-07T03:03:11;21.55;;;8.80;;
58083;SDS011;43882;51.550;11.858;2023-05-07T03:05:37;22.90;;;9.27;;
58083;SDS011;43882;51.550;11.858;2023-05-07T03:08:03;22.88;;;8.98;;
58083;SDS011;43882;51.550;11.858;2023-05-07T03:10:29;21.02;;;8.27;;
58083;SDS011;43882;51.550;11.858;2023-05-07T03:12:55;24.17;;;9.48;;
58083;SDS011;43882;51.550;11.858;2023-05-07T03:15:22;22.02;;;9.55;;
58083;SDS011;43882;51.550;11.858;2023-05-07T03:17:48;21.50;;;8.88;;
58083;SDS011;43882;51.550;11.858;2023-05-07T03:20:14;21.25;;;8.63;;
58083;SDS011;43882;51.550;11.858;2023-05-07T03:22:40;22.15;;;9.52;;
58083;SDS011;43882;51.550;11.858;2023-05-07T03:25:07;23.92;;;10.38;;
58083;SDS011;43882;51.550;11.858;2023-05-07T03:27:33;22.58;;;9.52;;
58083;SDS011;43882;51.550;11.858;2023-05-07T03:29:59;23.42;;;9.98;;
58083;SDS011;43882;51.550;11.858;2023-05-07T03:32:26;25.15;;;10.77;;
58083;SDS011;43882;51.550;11.858;2023-05-07T03:34:52;24.85;;;10.93;;
58083;SDS011;43882;51.550;11.858;2023-05-07T03:37:18;26.10;;;11.48;;
58083;SDS011;43882;51.550;11.858;2023-05-07T03:39:44;25.58;;;10.73;;
58083;SDS011;43882;51.550;11.858;2023-05-07T03:42:10;27.33;;;12.00;;
58083;SDS011;43882;51.550;11.858;2023-05-07T03:44:36;26.42;;;11.63;;
58083;SDS011;43882;51.550;11.858;2023-05-07T03:47:02;28.27;;;12.18;;
58083;SDS011;43882;51.550;11.858;2023-05-07T03:49:29;27.67;;;11.93;;
58083;SDS011;43882;51.550;11.858;2023-05-07T03:51:55;29.55;;;13.30;;
58083;SDS011;43882;51.550;11.858;2023-05-07T03:54:21;26.52;;;12.07;;
58083;SDS011;43882;51.550;11.858;2023-05-07T03:56:47;28.33;;;12.02;;
58083;SDS011;43882;51.550;11.858;2023-05-07T03:59:13;26.17;;;12.45;;
58083;SDS011;43882;51.550;11.858;2023-05-07T04:01:39;29.10;;;13.35;;
58083;SDS011;43882;51.550;11.858;2023-05-07T04:04:05;27.45;;;12.07;;
58083;SDS011;43882;51.550;11.858;2023-05-07T04:06:32;27.58;;;13.02;;
58083;SDS011;43882;51.550;11.858;2023-05-07T04:08:58;29.75;;;13.05;;
58083;SDS011;43882;51.550;11.858;2023-05-07T04:11:24;27.27;;;11.88;;
58083;SDS011;43882;51.550;11.858;2023-05-07T04:13:50;29.65;;;13.48;;
58083;SDS011;43882;51.550;11.858;2023-05-07T04:16:16;28.38;;;13.52;;
58083;SDS011;43882;51.550;11.858;2023-05-07T04:18:42;29.20;;;12.90;;
58083;SDS011;43882;51.550;11.858;2023-05-07T04:21:15;28.05;;;12.60;;
58083;SDS011;43882;51.550;11.858;2023-05-07T04:23:42;30.77;;;13.05;;
58083;SDS011;43882;51.550;11.858;2023-05-07T04:26:08;28.17;;;12.88;;
58083;SDS011;43882;51.550;11.858;2023-05-07T04:28:34;29.23;;;13.32;;
58083;SDS011;43882;51.550;11.858;2023-05-07T04:31:01;27.65;;;13.07;;
58083;SDS011;43882;51.550;11.858;2023-05-07T04:33:27;27.60;;;12.85;;
58083;SDS011;43882;51.550;11.858;2023-05-07T04:35:53;29.65;;;13.23;;
58083;SDS011;43882;51.550;11.858;2023-05-07T04:38:19;27.92;;;12.55;;
58083;SDS011;43882;51.550;11.858;2023-05-07T04:40:45;29.77;;;12.95;;
58083;SDS011;43882;51.550;11.858;2023-05-07T04:43:11;29.13;;;13.30;;
58083;SDS011;43882;51.550;11.858;2023-05-07T04:45:38;29.42;;;12.98;;
58083;SDS011;43882;51.550;11.858;2023-05-07T04:48:06;30.23;;;14.15;;
58083;SDS011;43882;51.550;11.858;2023-05-07T04:50:33;30.77;;;14.15;;
58083;SDS011;43882;51.550;11.858;2023-05-07T04:52:59;32.40;;;14.30;;
58083;SDS011;43882;51.550;11.858;2023-05-07T04:55:26;31.90;;;14.27;;
58083;SDS011;43882;51.550;11.858;2023-05-07T04:57:52;29.40;;;13.05;;
58083;SDS011;43882;51.550;11.858;2023-05-07T05:00:18;28.33;;;12.88;;
58083;SDS011;43882;51.550;11.858;2023-05-07T05:02:45;32.78;;;14.48;;
58083;SDS011;43882;51.550;11.858;2023-05-07T05:05:11;29.98;;;14.05;;
58083;SDS011;43882;51.550;11.858;2023-05-07T05:07:37;29.05;;;13.70;;
58083;SDS011;43882;51.550;11.858;2023-05-07T05:10:04;29.30;;;13.18;;
58083;SDS011;43882;51.550;11.858;2023-05-07T05:12:31;30.73;;;13.48;;
58083;SDS011;43882;51.550;11.858;2023-05-07T05:14:57;31.25;;;13.65;;
58083;SDS011;43882;51.550;11.858;2023-05-07T05:17:23;27.67;;;12.88;;
58083;SDS011;43882;51.550;11.858;2023-05-07T05:19:49;28.67;;;13.38;;
58083;SDS011;43882;51.550;11.858;2023-05-07T05:22:15;30.58;;;13.27;;
58083;SDS011;43882;51.550;11.858;2023-05-07T05:24:41;27.80;;;13.25;;
58083;SDS011;43882;51.550;11.858;2023-05-07T05:27:07;28.55;;;12.75;;
58083;SDS011;43882;51.550;11.858;2023-05-07T05:29:34;29.15;;;13.15;;
58083;SDS011;43882;51.550;11.858;2023-05-07T05:32:00;26.92;;;12.55;;
58083;SDS011;43882;51.550;11.858;2023-05-07T05:34:26;27.70;;;12.10;;
58083;SDS011;43882;51.550;11.858;2023-05-07T05:36:52;28.08;;;12.00;;
58083;SDS011;43882;51.550;11.858;2023-05-07T05:39:18;26.48;;;12.07;;
58083;SDS011;43882;51.550;11.858;2023-05-07T05:41:44;28.05;;;13.00;;
58083;SDS011;43882;51.550;11.858;2023-05-07T05:44:10;26.15;;;11.65;;
58083;SDS011;43882;51.550;11.858;2023-05-07T05:46:37;24.60;;;11.60;;
58083;SDS011;43882;51.550;11.858;2023-05-07T05:49:03;27.10;;;12.10;;
58083;SDS011;43882;51.550;11.858;2023-05-07T05:51:29;25.38;;;11.35;;
58083;SDS011;43882;51.550;11.858;2023-05-07T05:53:55;26.80;;;12.15;;
58083;SDS011;43882;51.550;11.858;2023-05-07T05:56:21;25.23;;;11.80;;
58083;SDS011;43882;51.550;11.858;2023-05-07T05:58:47;25.48;;;11.23;;
58083;SDS011;43882;51.550;11.858;2023-05-07T06:01:13;24.58;;;11.85;;
58083;SDS011;43882;51.550;11.858;2023-05-07T06:03:39;24.33;;;11.40;;
58083;SDS011;43882;51.550;11.858;2023-05-07T06:06:06;24.13;;;10.68;;
58083;SDS011;43882;51.550;11.858;2023-05-07T06:08:32;23.88;;;10.55;;
58083;SDS011;43882;51.550;11.858;2023-05-07T06:10:58;25.10;;;11.88;;
58083;SDS011;43882;51.550;11.858;2023-05-07T06:13:24;25.13;;;11.20;;
58083;SDS011;43882;51.550;11.858;2023-05-07T06:15:51;24.60;;;10.77;;
58083;SDS011;43882;51.550;11.858;2023-05-07T06:18:17;24.20;;;10.85;;
58083;SDS011;43882;51.550;11.858;2023-05-07T06:20:43;23.27;;;10.52;;
58083;SDS011;43882;51.550;11.858;2023-05-07T06:23:09;22.95;;;10.23;;
58083;SDS011;43882;51.550;11.858;2023-05-07T06:25:35;22.50;;;10.02;;
58083;SDS011;43882;51.550;11.858;2023-05-07T06:28:01;23.63;;;11.05;;
58083;SDS011;43882;51.550;11.858;2023-05-07T06:30:27;22.08;;;9.48;;
58083;SDS011;43882;51.550;11.858;2023-05-07T06:32:53;22.90;;;10.13;;
58083;SDS011;43882;51.550;11.858;2023-05-07T06:35:19;23.73;;;9.30;;
58083;SDS011;43882;51.550;11.858;2023-05-07T06:37:45;22.23;;;9.70;;
58083;SDS011;43882;51.550;11.858;2023-05-07T06:40:11;21.98;;;9.60;;
58083;SDS011;43882;51.550;11.858;2023-05-07T06:42:37;21.15;;;8.80;;
58083;SDS011;43882;51.550;11.858;2023-05-07T06:45:03;21.75;;;9.10;;
58083;SDS011;43882;51.550;11.858;2023-05-07T06:47:30;21.13;;;9.20;;
58083;SDS011;43882;51.550;11.858;2023-05-07T06:49:56;21.65;;;8.75;;
58083;SDS011;43882;51.550;11.858;2023-05-07T06:52:22;20.60;;;9.48;;
58083;SDS011;43882;51.550;11.858;2023-05-07T06:54:48;18.02;;;7.57;;
58083;SDS011;43882;51.550;11.858;2023-05-07T06:57:14;22.20;;;10.30;;
58083;SDS011;43882;51.550;11.858;2023-05-07T06:59:40;21.45;;;9.73;;
58083;SDS011;43882;51.550;11.858;2023-05-07T07:02:06;19.00;;;7.85;;
58083;SDS011;43882;51.550;11.858;2023-05-07T07:04:33;18.95;;;8.02;;
58083;SDS011;43882;51.550;11.858;2023-05-07T07:06:59;20.75;;;9.68;;
58083;SDS011;43882;51.550;11.858;2023-05-07T07:09:25;27.63;;;15.23;;
58083;SDS011;43882;51.550;11.858;2023-05-07T07:11:51;24.05;;;12.85;;
58083;SDS011;43882;51.550;11.858;2023-05-07T07:14:18;26.80;;;11.55;;
58083;SDS011;43882;51.550;11.858;2023-05-07T07:16:44;25.40;;;10.13;;
58083;SDS011;43882;51.550;11.858;2023-05-07T07:19:11;25.02;;;10.40;;
58083;SDS011;43882;51.550;11.858;2023-05-07T07:21:37;22.10;;;9.60;;
58083;SDS011;43882;51.550;11.858;2023-05-07T07:24:03;22.13;;;10.40;;
58083;SDS011;43882;51.550;11.858;2023-05-07T07:26:30;19.23;;;8.50;;
58083;SDS011;43882;51.550;11.858;2023-05-07T07:28:56;19.15;;;8.75;;
58083;SDS011;43882;51.550;11.858;2023-05-07T07:31:22;44.33;;;16.83;;
58083;SDS011;43882;51.550;11.858;2023-05-07T07:33:48;20.88;;;8.60;;
58083;SDS011;43882;51.550;11.858;2023-05-07T07:36:15;18.85;;;7.80;;
58083;SDS011;43882;51.550;11.858;2023-05-07T07:38:41;21.60;;;10.68;;
58083;SDS011;43882;51.550;11.858;2023-05-07T07:41:08;21.92;;;10.77;;
58083;SDS011;43882;51.550;11.858;2023-05-07T07:43:34;21.15;;;8.90;;
58083;SDS011;43882;51.550;11.858;2023-05-07T07:46:00;21.50;;;10.20;;
58083;SDS011;43882;51.550;11.858;2023-05-07T07:48:26;22.05;;;9.90;;
58083;SDS011;43882;51.550;11.858;2023-05-07T07:50:52;22.10;;;10.90;;
58083;SDS011;43882;51.550;11.858;2023-05-07T07:53:19;21.88;;;10.07;;
58083;SDS011;43882;51.550;11.858;2023-05-07T07:55:45;22.00;;;10.82;;
58083;SDS011;43882;51.550;11.858;2023-05-07T07:58:11;22.00;;;9.82;;
58083;SDS011;43882;51.550;11.858;2023-05-07T08:00:37;21.27;;;9.15;;
58083;SDS011;43882;51.550;11.858;2023-05-07T08:03:03;22.80;;;10.82;;
58083;SDS011;43882;51.550;11.858;2023-05-07T08:05:30;21.50;;;9.35;;
58083;SDS011;43882;51.550;11.858;2023-05-07T08:07:56;22.98;;;10.38;;
58083;SDS011;43882;51.550;11.858;2023-05-07T08:10:23;21.88;;;9.27;;
58083;SDS011;43882;51.550;11.858;2023-05-07T08:12:49;20.83;;;9.50;;
58083;SDS011;43882;51.550;11.858;2023-05-07T08:15:15;22.00;;;11.55;;
58083;SDS011;43882;51.550;11.858;2023-05-07T08:17:42;25.00;;;11.40;;
58083;SDS011;43882;51.550;11.858;2023-05-07T08:20:08;33.22;;;18.75;;
58083;SDS011;43882;51.550;11.858;2023-05-07T08:22:34;36.17;;;21.90;;
58083;SDS011;43882;51.550;11.858;2023-05-07T08:25:01;22.23;;;9.07;;
58083;SDS011;43882;51.550;11.858;2023-05-07T08:27:27;24.85;;;13.10;;
58083;SDS011;43882;51.550;11.858;2023-05-07T08:29:53;42.30;;;32.13;;
58083;SDS011;43882;51.550;11.858;2023-05-07T08:32:19;21.88;;;12.52;;
58083;SDS011;43882;51.550;11.858;2023-05-07T08:34:46;22.40;;;13.10;;
58083;SDS011;43882;51.550;11.858;2023-05-07T08:37:13;21.45;;;10.70;;
58083;SDS011;43882;51.550;11.858;2023-05-07T08:39:39;21.08;;;10.38;;
58083;SDS011;43882;51.550;11.858;2023-05-07T08:42:05;19.92;;;10.07;;
58083;SDS011;43882;51.550;11.858;2023-05-07T08:44:35;20.33;;;9.88;;
58083;SDS011;43882;51.550;11.858;2023-05-07T08:47:04;20.10;;;9.20;;
58083;SDS011;43882;51.550;11.858;2023-05-07T08:49:32;18.40;;;8.43;;
58083;SDS011;43882;51.550;11.858;2023-05-07T08:51:59;18.30;;;7.97;;
58083;SDS011;43882;51.550;11.858;2023-05-07T08:54:25;18.45;;;8.15;;
58083;SDS011;43882;51.550;11.858;2023-05-07T08:56:52;20.05;;;8.52;;
58083;SDS011;43882;51.550;11.858;2023-05-07T08:59:18;18.42;;;8.27;;
58083;SDS011;43882;51.550;11.858;2023-05-07T09:01:44;18.08;;;7.65;;
58083;SDS011;43882;51.550;11.858;2023-05-07T09:04:10;17.85;;;7.75;;
58083;SDS011;43882;51.550;11.858;2023-05-07T09:06:37;18.35;;;7.95;;
58083;SDS011;43882;51.550;11.858;2023-05-07T09:09:06;18.52;;;7.75;;
58083;SDS011;43882;51.550;11.858;2023-05-07T09:11:33;20.08;;;7.95;;
58083;SDS011;43882;51.550;11.858;2023-05-07T09:13:59;18.70;;;7.75;;
58083;SDS011;43882;51.550;11.858;2023-05-07T09:16:29;19.08;;;8.00;;
58083;SDS011;43882;51.550;11.858;2023-05-07T09:18:56;19.48;;;8.55;;
58083;SDS011;43882;51.550;11.858;2023-05-07T09:21:23;18.77;;;8.30;;
58083;SDS011;43882;51.550;11.858;2023-05-07T09:23:53;20.27;;;8.70;;
58083;SDS011;43882;51.550;11.858;2023-05-07T09:26:22;19.63;;;8.52;;
58083;SDS011;43882;51.550;11.858;2023-05-07T09:28:49;18.70;;;8.80;;
58083;SDS011;43882;51.550;11.858;2023-05-07T09:31:15;18.83;;;8.80;;
58083;SDS011;43882;51.550;11.858;2023-05-07T09:33:41;18.88;;;8.55;;
58083;SDS011;43882;51.550;11.858;2023-05-07T09:36:08;20.02;;;8.52;;
58083;SDS011;43882;51.550;11.858;2023-05-07T09:38:35;20.58;;;8.65;;
58083;SDS011;43882;51.550;11.858;2023-05-07T09:41:05;20.40;;;8.65;;
58083;SDS011;43882;51.550;11.858;2023-05-07T09:43:36;20.35;;;9.43;;
58083;SDS011;43882;51.550;11.858;2023-05-07T09:46:07;20.30;;;9.02;;
58083;SDS011;43882;51.550;11.858;2023-05-07T09:48:37;20.40;;;9.63;;
58083;SDS011;43882;51.550;11.858;2023-05-07T09:51:15;21.08;;;9.27;;
58083;SDS011;43882;51.550;11.858;2023-05-07T09:53:53;22.70;;;10.32;;
58083;SDS011;43882;51.550;11.858;2023-05-07T09:56:19;19.92;;;8.80;;
58083;SDS011;43882;51.550;11.858;2023-05-07T09:58:46;20.90;;;8.80;;
58083;SDS011;43882;51.550;11.858;2023-05-07T10:01:12;24.70;;;13.73;;
58083;SDS011;43882;51.550;11.858;2023-05-07T10:03:42;31.50;;;16.15;;
58083;SDS011;43882;51.550;11.858;2023-05-07T10:06:09;52.28;;;28.92;;
58083;SDS011;43882;51.550;11.858;2023-05-07T10:08:36;80.18;;;54.28;;
58083;SDS011;43882;51.550;11.858;2023-05-07T10:11:03;26.65;;;14.93;;
58083;SDS011;43882;51.550;11.858;2023-05-07T10:13:30;23.23;;;11.98;;
58083;SDS011;43882;51.550;11.858;2023-05-07T10:15:59;20.77;;;10.32;;
58083;SDS011;43882;51.550;11.858;2023-05-07T10:18:27;24.58;;;15.40;;
58083;SDS011;43882;51.550;11.858;2023-05-07T10:20:58;22.02;;;11.05;;
58083;SDS011;43882;51.550;11.858;2023-05-07T10:23:37;23.50;;;13.18;;
58083;SDS011;43882;51.550;11.858;2023-05-07T10:26:05;22.52;;;11.43;;
58083;SDS011;43882;51.550;11.858;2023-05-07T10:28:33;24.30;;;10.90;;
58083;SDS011;43882;51.550;11.858;2023-05-07T10:33:48;22.40;;;10.60;;
58083;SDS011;43882;51.550;11.858;2023-05-07T10:36:15;21.20;;;9.98;;
58083;SDS011;43882;51.550;11.858;2023-05-07T10:38:41;22.73;;;10.80;;
58083;SDS011;43882;51.550;11.858;2023-05-07T10:41:07;22.90;;;10.30;;
58083;SDS011;43882;51.550;11.858;2023-05-07T10:43:40;23.75;;;10.68;;
58083;SDS011;43882;51.550;11.858;2023-05-07T10:49:21;22.80;;;10.75;;
58083;SDS011;43882;51.550;11.858;2023-05-07T10:51:29;21.58;;;9.88;;
58083;SDS011;43882;51.550;11.858;2023-05-07T10:56:35;22.15;;;10.63;;
58083;SDS011;43882;51.550;11.858;2023-05-07T11:01:53;23.48;;;10.68;;
58083;SDS011;43882;51.550;11.858;2023-05-07T11:04:19;22.45;;;10.98;;
58083;SDS011;43882;51.550;11.858;2023-05-07T11:17:32;23.30;;;10.52;;
58083;SDS011;43882;51.550;11.858;2023-05-07T11:20:02;23.20;;;11.57;;
58083;SDS011;43882;51.550;11.858;2023-05-07T11:25:04;22.70;;;11.60;;
58083;SDS011;43882;51.550;11.858;2023-05-07T11:29:57;25.08;;;11.57;;
58083;SDS011;43882;51.550;11.858;2023-05-07T11:32:24;21.83;;;10.75;;
58083;SDS011;43882;51.550;11.858;2023-05-07T11:34:52;22.52;;;10.85;;
58083;SDS011;43882;51.550;11.858;2023-05-07T11:37:19;20.67;;;9.82;;
58083;SDS011;43882;51.550;11.858;2023-05-07T11:39:45;19.42;;;9.23;;
58083;SDS011;43882;51.550;11.858;2023-05-07T11:42:31;21.65;;;10.40;;
58083;SDS011;43882;51.550;11.858;2023-05-07T11:44:58;21.98;;;10.88;;
58083;SDS011;43882;51.550;11.858;2023-05-07T11:47:25;22.98;;;11.07;;
58083;SDS011;43882;51.550;11.858;2023-05-07T11:49:52;22.27;;;10.90;;
58083;SDS011;43882;51.550;11.858;2023-05-07T11:52:19;21.95;;;11.55;;
58083;SDS011;43882;51.550;11.858;2023-05-07T11:55:04;22.83;;;11.38;;
58083;SDS011;43882;51.550;11.858;2023-05-07T11:57:32;21.33;;;10.73;;
58083;SDS011;43882;51.550;11.858;2023-05-07T11:59:59;22.13;;;9.98;;
58083;SDS011;43882;51.550;11.858;2023-05-07T12:02:30;20.15;;;8.93;;
58083;SDS011;43882;51.550;11.858;2023-05-07T12:04:56;22.50;;;10.93;;
58083;SDS011;43882;51.550;11.858;2023-05-07T12:07:23;22.15;;;10.60;;
58083;SDS011;43882;51.550;11.858;2023-05-07T12:09:49;21.92;;;10.80;;
58083;SDS011;43882;51.550;11.858;2023-05-07T12:12:16;23.70;;;13.18;;
58083;SDS011;43882;51.550;11.858;2023-05-07T12:14:43;31.48;;;21.30;;
58083;SDS011;43882;51.550;11.858;2023-05-07T12:17:10;23.73;;;11.73;;
58083;SDS011;43882;51.550;11.858;2023-05-07T12:19:38;20.42;;;10.43;;
58083;SDS011;43882;51.550;11.858;2023-05-07T12:22:05;21.70;;;10.95;;
58083;SDS011;43882;51.550;11.858;2023-05-07T12:24:43;22.05;;;9.68;;
58083;SDS011;43882;51.550;11.858;2023-05-07T12:27:13;19.70;;;9.18;;
58083;SDS011;43882;51.550;11.858;2023-05-07T12:29:39;19.73;;;8.35;;
58083;SDS011;43882;51.550;11.858;2023-05-07T12:32:14;18.63;;;7.93;;
58083;SDS011;43882;51.550;11.858;2023-05-07T12:34:40;18.13;;;7.43;;
58083;SDS011;43882;51.550;11.858;2023-05-07T12:37:07;18.30;;;7.03;;
58083;SDS011;43882;51.550;11.858;2023-05-07T12:39:33;17.90;;;7.45;;
58083;SDS011;43882;51.550;11.858;2023-05-07T12:41:59;18.10;;;7.40;;
58083;SDS011;43882;51.550;11.858;2023-05-07T12:44:29;19.08;;;7.53;;
58083;SDS011;43882;51.550;11.858;2023-05-07T12:46:57;20.10;;;9.05;;
58083;SDS011;43882;51.550;11.858;2023-05-07T12:49:26;18.20;;;8.20;;
58083;SDS011;43882;51.550;11.858;2023-05-07T12:51:53;18.92;;;8.30;;
58083;SDS011;43882;51.550;11.858;2023-05-07T12:54:29;20.75;;;9.32;;
58083;SDS011;43882;51.550;11.858;2023-05-07T12:57:06;19.58;;;8.25;;
58083;SDS011;43882;51.550;11.858;2023-05-07T12:59:37;18.30;;;7.97;;
58083;SDS011;43882;51.550;11.858;2023-05-07T13:02:05;19.58;;;8.23;;
58083;SDS011;43882;51.550;11.858;2023-05-07T13:04:31;20.00;;;8.68;;
58083;SDS011;43882;51.550;11.858;2023-05-07T13:06:58;19.23;;;8.77;;
58083;SDS011;43882;51.550;11.858;2023-05-07T13:09:24;19.45;;;8.85;;
58083;SDS011;43882;51.550;11.858;2023-05-07T13:11:50;19.23;;;8.40;;
58083;SDS011;43882;51.550;11.858;2023-05-07T13:14:16;20.90;;;8.38;;
58083;SDS011;43882;51.550;11.858;2023-05-07T13:16:43;20.77;;;9.25;;
58083;SDS011;43882;51.550;11.858;2023-05-07T13:19:09;20.23;;;9.15;;
58083;SDS011;43882;51.550;11.858;2023-05-07T13:21:35;19.38;;;8.07;;
58083;SDS011;43882;51.550;11.858;2023-05-07T13:24:02;18.75;;;8.30;;
58083;SDS011;43882;51.550;11.858;2023-05-07T13:26:29;19.05;;;8.43;;
58083;SDS011;43882;51.550;11.858;2023-05-07T13:28:56;19.38;;;8.23;;
58083;SDS011;43882;51.550;11.858;2023-05-07T13:31:22;19.48;;;8.45;;
58083;SDS011;43882;51.550;11.858;2023-05-07T13:33:49;20.05;;;7.82;;
58083;SDS011;43882;51.550;11.858;2023-05-07T13:36:15;19.52;;;8.30;;
58083;SDS011;43882;51.550;11.858;2023-05-07T13:38:41;18.23;;;7.50;;
58083;SDS011;43882;51.550;11.858;2023-05-07T13:41:07;18.10;;;7.43;;
58083;SDS011;43882;51.550;11.858;2023-05-07T13:43:33;17.92;;;7.65;;
58083;SDS011;43882;51.550;11.858;2023-05-07T13:46:00;18.10;;;7.63;;
58083;SDS011;43882;51.550;11.858;2023-05-07T13:48:26;17.45;;;7.30;;
58083;SDS011;43882;51.550;11.858;2023-05-07T13:50:53;16.98;;;6.97;;
58083;SDS011;43882;51.550;11.858;2023-05-07T13:53:19;18.27;;;7.15;;
58083;SDS011;43882;51.550;11.858;2023-05-07T13:55:45;18.63;;;7.72;;
58083;SDS011;43882;51.550;11.858;2023-05-07T13:58:11;22.80;;;12.02;;
58083;SDS011;43882;51.550;11.858;2023-05-07T14:00:37;21.52;;;11.85;;
58083;SDS011;43882;51.550;11.858;2023-05-07T14:03:04;20.05;;;9.23;;
58083;SDS011;43882;51.550;11.858;2023-05-07T14:05:30;17.60;;;6.95;;
58083;SDS011;43882;51.550;11.858;2023-05-07T14:07:57;18.33;;;8.02;;
58083;SDS011;43882;51.550;11.858;2023-05-07T14:10:23;17.80;;;7.55;;
58083;SDS011;43882;51.550;11.858;2023-05-07T14:12:49;19.23;;;8.52;;
58083;SDS011;43882;51.550;11.858;2023-05-07T14:15:16;18.42;;;8.63;;
58083;SDS011;43882;51.550;11.858;2023-05-07T14:17:42;18.40;;;7.60;;
58083;SDS011;43882;51.550;11.858;2023-05-07T14:20:09;16.90;;;6.40;;
58083;SDS011;43882;51.550;11.858;2023-05-07T14:22:35;18.15;;;7.07;;
58083;SDS011;43882;51.550;11.858;2023-05-07T14:25:01;17.50;;;6.90;;
58083;SDS011;43882;51.550;11.858;2023-05-07T14:27:28;17.05;;;6.65;;
58083;SDS011;43882;51.550;11.858;2023-05-07T14:29:54;17.70;;;7.10;;
58083;SDS011;43882;51.550;11.858;2023-05-07T14:32:20;17.77;;;6.95;;
58083;SDS011;43882;51.550;11.858;2023-05-07T14:34:46;17.35;;;6.63;;
58083;SDS011;43882;51.550;11.858;2023-05-07T14:37:13;17.92;;;6.80;;
58083;SDS011;43882;51.550;11.858;2023-05-07T14:39:39;17.50;;;6.85;;